Share

Badlands National Park, SD

6:56 PM MDT on April 23, 2014 (GMT -0600)
RAWS PINNACLES SD US (MPINS2) Elev 3080 ft | 43.88 °N, 102.24 °W | Change Station
Active Advisory: Fire Weather Watch

Current weather conditions updated 36 minutes ago

Overcast
Overcast
55 °F
Feels Like 55 °F
N
26
Wind Variable Wind from NNW
Gusts 38.0 mph
Sunrise 5:51 AM
Sunset 7:40 PM
Moon Waning Crescent

Tomorrow is forecast to be nearly the same temperature as today.

Pressure 29.63 in
Visibility 10.0 miles
Clouds Mostly Cloudy 7000 ft
Overcast 9500 ft
Dew Point 34 °F
Humidity 45%
Rainfall 0.00 in
Snow Depth Not available.
UV 0 out of 16
Pollen 11.20 out of 12
Air Quality Not available.
Flu Activity Sporadic
METAR KPHP 232355Z AUTO 34023G31KT 10SM BKN070 OVC095 14/04 A2964 RMK AO2 PK WND 34033/2314 SLP032 60000 T01390039 10222 20139 51037

More Conditions Fewer Conditions

Pressure 29.63 in
Visibility 10.0 miles
Clouds Mostly Cloudy 7000 ft
Overcast 9500 ft
Dew Point 34 °F
Humidity 45%
Rainfall 0.00 in
Snow Depth Not available.
UV 0 out of 16
Pollen 11.20 out of 12
Air Quality Not available.
Flu Activity Sporadic
METAR KPHP 232355Z AUTO 34023G31KT 10SM BKN070 OVC095 14/04 A2964 RMK AO2 PK WND 34033/2314 SLP032 60000 T01390039 10222 20139 51037

More Conditions Fewer Conditions

10-Day Weather Forecast

Almanac

Astronomy

Apr. 23, 2014 Rise Set
Actual Time 5:51 AM MDT 7:40 PM MDT
Civil Twilight 5:21 AM MDT 8:11 PM MDT
Nautical Twilight 4:43 AM MDT 8:49 PM MDT
Astronomical Twilight 4:03 AM MDT 9:30 PM MDT
Moon 2:36 AM MDT (4/23) 1:40 PM MDT (4/23)
Length of Visible Light 14h 50m
Length of Day
13h 49m
Tomorrow will be 2m 46s longer.
Waning Crescent, 31% of the Moon is Illuminated
Today
Waning Crescent
Apr 29
New
May 6
First Quarter
May 14
Full
May 21
Last Quarter

Today's Extremes

State Highs State Lows

Community

  • Nestled In
    Nestled In
  • Stunning Sunrise
    Stunning Sunrise
  • spring flowers
    spring flowers
  • Earth Day Spectrum Ove' Blue
    Earth Day Spectrum Ove' Blue
  • BARN B&W
    BARN B&W

WunderPhotos

Upload Photos

1,704,470 photos uploaded!

Nearby

Snow Depth

Station Depth Elevation
North Rapid Creek 10 in 6130 ft
Blind Park 9 in 6890 ft

Coastal Water Temperatures

Place Temperature
No Stations Reporting

Earthquake Activity

City Distance Mag. Time & Date
No recent earthquake activity has been reported nearby.
Minimum magnitude displayed is 2.5.

Nearby Weather Stations

Station Location Temp. Dew Point Humidity Wind Precip. Elev Updated Type
RAWS PINNACLES SD, Wall, SD 55 °F 34 °F 45% NNW  at  26 mph 0.00 in / hr 3080 ft 6:20 PM MDT MADIS
NonFedAWOS WALLMUNC , Wall, SD 55 °F 36 °F 47% NW  at  28 mph 0.00 in / hr 2812 ft 6:15 PM MDT MADIS

Show More Stations Show Fewer Stations

What do you think?

We're not finished. Please let us know what you like, what you don't like, and what you are still missing.